Time;durP1;ratioP1;P1;durP2;ratioP2;P2;SDS_P1;SDS_P2;PMS_P1;PMS_P2;Temp;Humidity;BMP_temperature;BMP_pressure;BME280_temperature;BME280_humidity;BME280_pressure;Samples;Min_cycle;Max_cycle;Signal;HPM_P1;HPM_P2
2023/02/09 00:01:27;;;;;;;38.08;14.15;;;-2.70;98.30;;;;;;4888838;29;20043;-78
2023/02/09 00:03:55;;;;;;;36.25;13.40;;;-2.60;98.40;;;;;;4892522;29;20411;-78
2023/02/09 00:06:23;;;;;;;34.15;12.77;;;-2.60;98.30;;;;;;4874621;29;20051;-78
2023/02/09 00:08:50;;;;;;;37.15;12.70;;;-2.70;98.30;;;;;;4902926;29;20054;-78
2023/02/09 00:13:21;;;;;;;31.60;12.50;;;-2.70;98.30;;;;;;4905993;29;20440;-78
2023/02/09 00:14:13;;;;;;;28.50;11.15;;;-2.70;98.50;;;;;;4889205;29;20044;-78
2023/02/09 00:16:41;;;;;;;33.38;11.57;;;-2.70;98.40;;;;;;4906131;29;20131;-78
2023/02/09 00:19:09;;;;;;;37.42;11.10;;;-2.70;98.20;;;;;;4905012;29;20069;-79
2023/02/09 00:21:36;;;;;;;29.98;10.95;;;-2.70;98.20;;;;;;4890643;29;20400;-78
2023/02/09 00:24:04;;;;;;;28.45;10.73;;;-2.70;98.20;;;;;;4883562;29;20130;-78
2023/02/09 00:26:32;;;;;;;35.03;11.57;;;-2.70;98.20;;;;;;4890804;29;20064;-78
2023/02/09 00:28:59;;;;;;;31.52;11.23;;;-2.70;98.30;;;;;;4869798;29;20055;-78
2023/02/09 00:31:27;;;;;;;35.95;10.90;;;-2.70;98.50;;;;;;4870394;29;20411;-78
2023/02/09 00:33:54;;;;;;;30.38;11.25;;;-2.80;98.60;;;;;;4907229;29;20048;-78
2023/02/09 00:36:21;;;;;;;35.33;12.98;;;-2.80;98.70;;;;;;4889462;29;20037;-78
2023/02/09 00:38:48;;;;;;;41.28;12.90;;;-2.80;98.50;;;;;;4881794;29;20044;-78
2023/02/09 00:41:15;;;;;;;39.88;12.02;;;-2.80;98.40;;;;;;4884642;29;20044;-78
2023/02/09 00:43:43;;;;;;;37.78;13.00;;;-2.80;98.30;;;;;;4871552;29;20498;-78
2023/02/09 00:46:10;;;;;;;34.58;11.85;;;-2.90;98.20;;;;;;4907794;29;20056;-78
2023/02/09 00:48:37;;;;;;;36.13;12.68;;;-2.90;98.30;;;;;;4896969;29;20045;-78
2023/02/09 00:51:04;;;;;;;40.28;13.40;;;-2.90;98.30;;;;;;4886334;29;20131;-78
2023/02/09 00:53:34;;;;;;;36.65;13.35;;;-2.80;98.40;;;;;;4887309;29;20067;-78
2023/02/09 00:56:01;;;;;;;39.42;11.70;;;-2.90;98.30;;;;;;4889072;29;20058;-78
2023/02/09 00:58:29;;;;;;;32.60;12.93;;;-2.90;98.30;;;;;;4888796;29;20040;-78
2023/02/09 01:00:56;;;;;;;37.08;13.45;;;-2.90;98.20;;;;;;4876963;29;20112;-78
2023/02/09 01:03:23;;;;;;;40.58;12.60;;;-2.90;98.20;;;;;;4907107;29;20134;-78
2023/02/09 01:05:52;;;;;;;43.15;14.30;;;-3.00;98.50;;;;;;4887913;29;20199;-78
2023/02/09 01:08:19;;;;;;;48.75;16.20;;;-3.00;98.30;;;;;;4891355;29;20041;-78
2023/02/09 01:10:46;;;;;;;47.72;16.60;;;-3.00;98.50;;;;;;4886937;29;20419;-78
2023/02/09 01:13:13;;;;;;;47.95;15.15;;;-3.10;98.50;;;;;;4888773;29;20059;-78
2023/02/09 01:15:40;;;;;;;50.90;16.40;;;-3.10;98.60;;;;;;4903400;29;20059;-78
2023/02/09 01:18:07;;;;;;;54.55;18.27;;;-3.10;98.70;;;;;;4901612;29;20426;-78
2023/02/09 01:20:34;;;;;;;50.22;17.42;;;-3.10;98.70;;;;;;4888613;29;20040;-78
2023/02/09 01:23:02;;;;;;;46.15;15.23;;;-3.10;98.90;;;;;;4881332;29;20143;-78
2023/02/09 01:25:29;;;;;;;53.63;17.05;;;-3.20;98.70;;;;;;4886774;29;20404;-78
2023/02/09 01:27:56;;;;;;;53.53;18.42;;;-3.20;98.70;;;;;;4867448;29;21796;-78
2023/02/09 01:30:25;;;;;;;56.42;18.88;;;-3.30;98.90;;;;;;4873141;29;20119;-78
2023/02/09 01:32:54;;;;;;;48.10;16.67;;;-3.20;99.10;;;;;;4887047;29;20608;-78
2023/02/09 01:35:21;;;;;;;57.97;19.05;;;-3.30;99.20;;;;;;4888164;29;20056;-78
2023/02/09 01:37:48;;;;;;;59.45;20.40;;;-3.30;99.30;;;;;;4901638;29;20040;-78
2023/02/09 01:40:15;;;;;;;57.25;20.05;;;-3.30;99.30;;;;;;4886073;29;20048;-78
2023/02/09 01:42:42;;;;;;;67.93;22.00;;;-3.40;99.30;;;;;;4889186;29;20071;-78
2023/02/09 01:45:23;;;;;;;53.70;18.35;;;-3.40;99.30;;;;;;4890213;29;20038;-78
2023/02/09 01:47:58;;;;;;;66.72;20.63;;;-3.40;99.40;;;;;;4882534;29;20063;-78
2023/02/09 01:50:28;;;;;;;54.38;19.73;;;-3.40;99.60;;;;;;4905614;29;20095;-78
2023/02/09 01:52:56;;;;;;;55.92;18.58;;;-3.40;99.60;;;;;;4870812;29;20055;-78
2023/02/09 01:55:26;;;;;;;57.30;20.20;;;-3.50;99.80;;;;;;4888131;29;20056;-78
2023/02/09 01:58:04;;;;;;;59.40;19.65;;;-3.50;99.90;;;;;;4885230;29;20480;-78
2023/02/09 02:00:32;;;;;;;67.05;22.45;;;-3.50;99.90;;;;;;4908224;29;20068;-78
2023/02/09 02:03:03;;;;;;;60.78;20.15;;;-3.50;99.90;;;;;;4894076;29;20044;-78
2023/02/09 02:05:35;;;;;;;58.67;20.88;;;-3.60;99.90;;;;;;4892438;29;20438;-78
2023/02/09 02:08:24;;;;;;;60.88;19.35;;;-3.60;99.90;;;;;;4910094;29;20145;-78
2023/02/09 02:10:52;;;;;;;66.78;20.95;;;-3.60;99.90;;;;;;4906038;29;20142;-78
2023/02/09 02:13:19;;;;;;;74.18;21.48;;;-3.60;99.90;;;;;;4878335;29;20428;-78
2023/02/09 02:16:16;;;;;;;62.15;20.95;;;-3.60;99.90;;;;;;4890749;29;20490;-78
2023/02/09 02:18:52;;;;;;;60.47;20.40;;;-3.70;99.90;;;;;;4907526;29;20044;-78
2023/02/09 02:21:55;;;;;;;55.88;21.52;;;-3.70;99.90;;;;;;4895538;29;20092;-78
2023/02/09 02:24:25;;;;;;;68.20;21.77;;;-3.70;99.90;;;;;;4890854;29;20048;-78
2023/02/09 02:27:06;;;;;;;59.25;19.63;;;-3.80;99.90;;;;;;4891239;29;20122;-79
2023/02/09 02:30:20;;;;;;;58.08;20.60;;;-3.80;99.90;;;;;;4891694;29;20054;-78
2023/02/09 02:33:11;;;;;;;67.32;19.77;;;-3.80;99.90;;;;;;4811422;29;20114;-78
2023/02/09 02:36:13;;;;;;;57.38;20.80;;;-3.80;99.90;;;;;;4818446;29;20842;-79
2023/02/09 02:38:56;;;;;;;53.53;17.92;;;-3.90;99.90;;;;;;4880556;29;20130;-78
2023/02/09 02:42:46;;;;;;;50.63;18.70;;;-3.90;99.90;;;;;;4872721;29;20132;-78
2023/02/09 02:44:21;;;;;;;56.95;17.65;;;-3.90;99.90;;;;;;4902849;29;20075;-78
2023/02/09 02:46:53;;;;;;;49.65;17.08;;;-3.90;99.90;;;;;;4908201;29;20408;-78
2023/02/09 02:49:23;;;;;;;53.50;17.25;;;-3.90;99.90;;;;;;4893577;29;20048;-78
2023/02/09 02:51:53;;;;;;;52.97;16.90;;;-4.00;99.90;;;;;;4889478;29;20133;-78
2023/02/09 02:54:26;;;;;;;45.95;15.23;;;-3.40;99.90;;;;;;4905999;29;20567;-78
2023/02/09 02:56:57;;;;;;;;;;;-4.00;99.90;;;;;;4891114;29;20542;-78
2023/02/09 02:59:34;;;;;;;46.53;14.60;;;-4.00;99.90;;;;;;4890153;29;20282;-78
2023/02/09 03:02:11;;;;;;;46.85;17.13;;;-4.10;99.90;;;;;;4876077;29;20384;-78
2023/02/09 03:04:41;;;;;;;46.55;15.82;;;-4.10;99.90;;;;;;4891254;29;20044;-78
2023/02/09 03:07:09;;;;;;;45.42;16.48;;;-4.00;99.90;;;;;;4905054;29;20044;-79
2023/02/09 03:09:36;;;;;;;49.05;18.25;;;-4.10;99.90;;;;;;4905929;29;20048;-78
2023/02/09 03:12:32;;;;;;;56.10;18.02;;;-4.10;99.90;;;;;;4873911;29;20040;-79
2023/02/09 03:15:14;;;;;;;46.92;16.33;;;-4.20;99.90;;;;;;4890252;29;20048;-79
2023/02/09 03:17:54;;;;;;;39.97;15.07;;;-4.10;99.90;;;;;;4904746;29;20036;-79
2023/02/09 03:20:49;;;;;;;47.10;16.77;;;-4.20;99.90;;;;;;4890382;29;20079;-79
2023/02/09 03:23:32;;;;;;;53.63;14.18;;;-4.30;99.90;;;;;;4887724;29;20046;-79
2023/02/09 03:26:08;;;;;;;37.22;13.45;;;-4.20;99.90;;;;;;4907187;29;20049;-79
2023/02/09 03:28:39;;;;;;;37.90;13.63;;;-4.30;99.90;;;;;;4883355;29;20060;-78
2023/02/09 03:31:07;;;;;;;33.00;12.32;;;-4.10;99.90;;;;;;4884478;29;20529;-78
2023/02/09 03:33:37;;;;;;;44.63;13.35;;;-4.20;99.90;;;;;;4906943;29;20473;-79
2023/02/09 03:36:08;;;;;;;38.65;12.95;;;-4.20;99.90;;;;;;4890120;29;20040;-78
2023/02/09 03:38:36;;;;;;;48.47;14.27;;;-4.30;99.90;;;;;;4888317;29;20184;-79
2023/02/09 03:41:03;;;;;;;46.30;15.10;;;-4.30;99.90;;;;;;4906235;29;20559;-79
2023/02/09 03:46:18;;;;;;;46.45;14.43;;;-3.90;99.90;;;;;;4895562;29;20055;-81
2023/02/09 03:48:48;;;;;;;37.42;14.30;;;-4.40;99.90;;;;;;4892141;29;20048;-79
2023/02/09 03:51:16;;;;;;;44.90;15.05;;;-4.40;99.90;;;;;;4905940;29;20048;-79
2023/02/09 03:53:43;;;;;;;39.20;13.95;;;-4.30;99.90;;;;;;4890326;29;20044;-78
2023/02/09 03:56:10;;;;;;;41.22;14.73;;;-4.30;99.90;;;;;;4890407;29;23602;-78
2023/02/09 03:58:37;;;;;;;46.72;15.48;;;-4.10;99.90;;;;;;4877484;29;20544;-78
2023/02/09 04:01:09;;;;;;;43.38;14.00;;;-4.20;99.90;;;;;;4885096;29;20087;-78
2023/02/09 04:03:38;;;;;;;38.72;12.90;;;-4.30;99.90;;;;;;4886210;29;20464;-78
2023/02/09 04:06:05;;;;;;;38.50;12.85;;;-4.30;99.90;;;;;;4904890;29;20134;-77
2023/02/09 04:08:32;;;;;;;42.10;12.30;;;-4.40;99.90;;;;;;4888074;29;20099;-78
2023/02/09 04:11:00;;;;;;;39.03;13.55;;;-4.40;99.90;;;;;;4886894;29;20060;-79
2023/02/09 04:13:27;;;;;;;42.75;14.10;;;-4.40;99.90;;;;;;4906040;29;20048;-79
2023/02/09 04:15:54;;;;;;;35.85;12.10;;;-4.50;99.90;;;;;;4878954;29;20036;-79
2023/02/09 04:18:21;;;;;;;40.03;12.55;;;-4.50;99.90;;;;;;4887086;29;20048;-78
2023/02/09 04:20:48;;;;;;;39.40;12.90;;;-4.60;99.90;;;;;;4884935;29;20059;-79
2023/02/09 04:23:16;;;;;;;40.67;13.70;;;-4.50;99.90;;;;;;4905953;29;20052;-79
2023/02/09 04:25:46;;;;;;;41.22;12.65;;;-4.50;99.90;;;;;;4873778;29;20055;-78
2023/02/09 04:28:13;;;;;;;26.92;10.02;;;-4.50;99.90;;;;;;4889332;29;20043;-78
2023/02/09 04:30:42;;;;;;;29.73;10.82;;;-4.10;99.90;;;;;;4873585;29;20048;-78
2023/02/09 04:33:10;;;;;;;32.70;10.05;;;-4.30;99.90;;;;;;4891961;29;20131;-78
2023/02/09 04:35:37;;;;;;;41.17;11.93;;;-4.40;99.90;;;;;;4885453;29;20139;-78
2023/02/09 04:38:04;;;;;;;27.08;9.95;;;-4.40;99.90;;;;;;4892477;29;20036;-78
2023/02/09 04:40:31;;;;;;;32.90;12.45;;;-4.40;99.90;;;;;;4891573;29;20708;-78
2023/02/09 04:42:58;;;;;;;37.53;11.73;;;-4.40;99.90;;;;;;4893868;29;20056;-78
2023/02/09 04:45:25;;;;;;;40.30;12.45;;;-4.50;99.90;;;;;;4890770;29;20142;-77
2023/02/09 04:47:52;;;;;;;40.35;12.40;;;-4.50;99.90;;;;;;4912989;29;20040;-77
2023/02/09 04:50:20;;;;;;;41.85;12.30;;;-4.50;99.90;;;;;;4893777;29;20127;-77
2023/02/09 04:52:47;;;;;;;39.03;13.63;;;-4.50;99.90;;;;;;4886369;29;20044;-78
2023/02/09 04:55:14;;;;;;;32.78;12.43;;;-4.50;99.90;;;;;;4891247;29;20073;-78
2023/02/09 05:00:27;;;;;;;36.50;12.02;;;-4.50;99.90;;;;;;4889627;29;20067;-77
2023/02/09 05:02:54;;;;;;;39.22;12.50;;;-4.60;99.90;;;;;;4888854;29;20048;-77
2023/02/09 05:05:21;;;;;;;39.55;11.60;;;-4.60;99.90;;;;;;4889218;29;20056;-77
2023/02/09 05:07:48;;;;;;;42.70;13.05;;;-4.60;99.90;;;;;;4899426;29;20378;-79
2023/02/09 05:10:16;;;;;;;35.25;13.85;;;-4.60;99.90;;;;;;4891113;29;20060;-78
2023/02/09 05:12:43;;;;;;;42.08;15.35;;;-4.60;99.90;;;;;;4892015;29;20048;-79
2023/02/09 05:15:10;;;;;;;54.90;18.05;;;-4.60;99.90;;;;;;4906665;29;20047;-79
2023/02/09 05:17:38;;;;;;;55.83;17.45;;;-4.70;99.90;;;;;;4889737;29;20055;-78
2023/02/09 05:20:06;;;;;;;46.78;14.80;;;-4.60;99.90;;;;;;4888457;29;20052;-79
2023/02/09 05:22:33;;;;;;;44.08;15.27;;;-4.60;99.90;;;;;;4886208;29;20040;-77
2023/02/09 05:25:00;;;;;;;49.97;17.33;;;-4.60;99.90;;;;;;4885736;29;20052;-79
2023/02/09 05:27:28;;;;;;;52.70;16.13;;;-4.60;99.90;;;;;;4887432;29;20571;-79
2023/02/09 05:29:55;;;;;;;44.15;13.80;;;-4.70;99.90;;;;;;4905122;29;20040;-76
2023/02/09 05:32:22;;;;;;;54.45;15.45;;;-4.70;99.90;;;;;;4887283;29;20032;-78
2023/02/09 05:34:49;;;;;;;45.75;14.52;;;-4.70;99.90;;;;;;4906807;29;20052;-77
2023/02/09 05:37:16;;;;;;;51.50;17.60;;;-4.80;99.90;;;;;;4876655;29;20059;-77
2023/02/09 05:39:43;;;;;;;51.72;17.92;;;-4.80;99.90;;;;;;4908766;29;20079;-77
2023/02/09 05:42:16;;;;;;;59.53;19.45;;;-4.70;99.90;;;;;;4905863;29;20508;-76
2023/02/09 05:44:47;;;;;;;62.10;17.90;;;-4.80;99.90;;;;;;4908000;29;20040;-77
2023/02/09 05:47:21;;;;;;;63.72;20.60;;;-4.80;99.90;;;;;;4898908;29;20051;-77
2023/02/09 05:49:48;;;;;;;62.90;19.00;;;-4.80;99.90;;;;;;4891131;29;20056;-78
2023/02/09 05:52:16;;;;;;;55.60;20.85;;;-4.60;99.90;;;;;;4906849;29;20356;-78
2023/02/09 05:54:43;;;;;;;62.25;20.92;;;-4.70;99.90;;;;;;4912135;29;20469;-77
2023/02/09 05:57:10;;;;;;;73.75;23.00;;;-4.80;99.90;;;;;;4906855;29;20052;-77
2023/02/09 05:59:37;;;;;;;61.10;22.42;;;-4.40;99.90;;;;;;4910104;29;20032;-78
2023/02/09 06:02:04;;;;;;;69.03;23.33;;;-4.80;99.90;;;;;;4871904;29;20048;-78
2023/02/09 06:04:32;;;;;;;65.38;23.55;;;-4.80;99.90;;;;;;4905110;29;20040;-79
2023/02/09 06:06:59;;;;;;;61.50;21.67;;;-4.80;99.90;;;;;;4909673;29;20043;-77
2023/02/09 06:09:26;;;;;;;70.78;24.10;;;-4.90;99.90;;;;;;4892975;29;20147;-78
2023/02/09 06:11:53;;;;;;;80.93;27.83;;;-4.60;99.90;;;;;;4913877;29;20055;-78
2023/02/09 06:14:21;;;;;;;77.03;27.38;;;-4.80;99.90;;;;;;4913648;29;20500;-78
2023/02/09 06:16:48;;;;;;;69.47;24.13;;;-4.90;99.90;;;;;;4897268;29;20416;-77
2023/02/09 06:19:18;;;;;;;56.42;21.42;;;-4.80;99.90;;;;;;4913200;29;20049;-77
2023/02/09 06:21:45;;;;;;;44.58;17.23;;;-4.80;99.90;;;;;;4907208;29;20609;-77
2023/02/09 06:24:14;;;;;;;50.63;20.05;;;-4.80;99.90;;;;;;4890756;29;20381;-78
2023/02/09 06:26:41;;;;;;;46.13;17.58;;;-4.80;99.90;;;;;;4888860;29;20071;-81
2023/02/09 06:29:09;;;;;;;48.80;17.73;;;-4.80;99.90;;;;;;4909372;29;20051;-78
2023/02/09 06:31:36;;;;;;;51.40;17.42;;;-4.70;99.90;;;;;;4885829;29;20044;-78
2023/02/09 06:34:04;;;;;;;55.25;17.40;;;-4.60;99.90;;;;;;4890711;29;20187;-77
2023/02/09 06:36:32;;;;;;;52.55;19.85;;;-4.70;99.90;;;;;;4907684;29;20052;-77
2023/02/09 06:38:59;;;;;;;76.45;24.55;;;-4.60;99.90;;;;;;4899001;29;20052;-77
2023/02/09 06:41:26;;;;;;;79.38;25.92;;;-4.60;99.90;;;;;;4882766;29;20658;-76
2023/02/09 06:43:53;;;;;;;67.38;23.08;;;-4.50;99.90;;;;;;4871389;29;20062;-76
2023/02/09 06:46:21;;;;;;;58.25;21.08;;;-4.50;99.90;;;;;;4903301;29;20071;-76
2023/02/09 06:48:48;;;;;;;59.55;20.15;;;-4.50;99.90;;;;;;4883564;29;20047;-76
2023/02/09 06:51:16;;;;;;;61.38;18.65;;;-4.40;99.90;;;;;;4884844;29;20507;-77
2023/02/09 06:53:43;;;;;;;58.83;20.38;;;-4.20;99.90;;;;;;4901901;29;20128;-76
2023/02/09 06:56:11;;;;;;;57.92;19.73;;;-4.30;99.90;;;;;;4900037;29;20049;-77
2023/02/09 06:58:39;;;;;;;58.60;20.60;;;-4.20;99.90;;;;;;4902919;29;20032;-76
2023/02/09 07:01:14;;;;;;;51.60;20.75;;;-4.10;99.90;;;;;;4900093;29;20049;-76
2023/02/09 07:03:42;;;;;;;77.97;24.52;;;-4.10;99.90;;;;;;4880624;29;20103;-74
2023/02/09 07:06:18;;;;;;;97.35;29.10;;;-4.00;99.90;;;;;;4887094;29;20047;-74
2023/02/09 07:08:45;;;;;;;123.30;32.88;;;-4.00;99.90;;;;;;4887478;29;20048;-74
2023/02/09 07:11:15;;;;;;;141.73;35.13;;;-3.90;99.90;;;;;;4883653;29;20047;-75
2023/02/09 07:13:43;;;;;;;117.70;31.63;;;-3.80;99.90;;;;;;4868815;29;20040;-75
2023/02/09 07:16:11;;;;;;;89.57;27.77;;;-3.70;99.90;;;;;;4913660;29;20048;-74
2023/02/09 07:18:38;;;;;;;98.13;31.63;;;-3.60;99.90;;;;;;4894831;29;20162;-74
2023/02/09 07:21:09;;;;;;;78.68;24.77;;;-3.60;99.90;;;;;;4897927;29;20052;-74
2023/02/09 07:23:36;;;;;;;60.40;19.50;;;-3.60;99.90;;;;;;4912205;29;20226;-74
2023/02/09 07:26:05;;;;;;;53.63;20.42;;;-3.50;99.90;;;;;;4913042;29;20433;-75
2023/02/09 07:28:34;;;;;;;50.03;19.65;;;-3.40;99.90;;;;;;4908345;29;20067;-74
2023/02/09 07:31:05;;;;;;;54.08;20.05;;;-3.30;99.90;;;;;;4906580;29;20456;-76
2023/02/09 07:33:33;;;;;;;77.35;22.70;;;-3.30;99.90;;;;;;4891193;29;20132;-75
2023/02/09 07:36:05;;;;;;;70.63;23.92;;;-3.20;99.90;;;;;;4890401;29;20052;-75
2023/02/09 07:38:33;;;;;;;53.53;20.77;;;-3.10;99.90;;;;;;4915580;29;20038;-75
2023/02/09 07:41:03;;;;;;;60.85;20.65;;;-3.10;99.90;;;;;;4894932;29;20063;-74
2023/02/09 07:43:30;;;;;;;56.15;20.60;;;-3.00;99.90;;;;;;4885636;29;20048;-74
2023/02/09 07:46:06;;;;;;;54.85;20.70;;;-2.90;99.90;;;;;;4882823;29;20041;-75
2023/02/09 07:48:34;;;;;;;54.00;20.23;;;-2.80;99.80;;;;;;4893513;29;20051;-76
2023/02/09 07:51:02;;;;;;;51.25;17.50;;;-2.80;99.50;;;;;;4890442;29;20512;-75
2023/02/09 07:53:29;;;;;;;47.75;17.35;;;-2.70;99.30;;;;;;4906081;29;20055;-75
2023/02/09 07:55:56;;;;;;;44.80;15.95;;;-2.60;99.10;;;;;;4891861;29;20056;-75
2023/02/09 07:58:24;;;;;;;48.30;17.70;;;-2.60;98.60;;;;;;4892653;29;20035;-75
2023/02/09 08:00:51;;;;;;;39.97;15.18;;;-2.50;98.40;;;;;;4887459;29;20381;-75
2023/02/09 08:03:21;;;;;;;36.67;11.63;;;-2.40;98.00;;;;;;4890074;29;20047;-75
2023/02/09 08:06:28;;;;;;;35.30;11.75;;;-2.30;97.60;;;;;;4902189;29;20055;-75
2023/02/09 08:09:09;;;;;;;35.28;12.43;;;-2.40;96.50;;;;;;4901817;29;20504;-75
2023/02/09 08:11:47;;;;;;;31.88;11.90;;;-2.20;96.80;;;;;;4899286;29;20108;-75
2023/02/09 08:14:40;;;;;;;36.13;12.13;;;-2.20;96.80;;;;;;4890654;29;20519;-75
2023/02/09 08:17:22;;;;;;;31.65;10.85;;;-2.10;96.60;;;;;;4906613;29;20404;-75
2023/02/09 08:20:13;;;;;;;32.13;11.32;;;-2.00;96.60;;;;;;4904437;29;20140;-75
2023/02/09 08:22:45;;;;;;;32.78;12.57;;;-1.90;97.00;;;;;;4891765;29;20080;-75
2023/02/09 08:25:15;;;;;;;30.83;11.55;;;-1.80;97.30;;;;;;4877663;29;20100;-75
2023/02/09 08:27:43;;;;;;;31.98;11.85;;;-1.80;96.50;;;;;;4892459;29;20036;-75
2023/02/09 08:30:13;;;;;;;28.15;9.73;;;-1.80;96.50;;;;;;4907137;29;20115;-75
2023/02/09 08:32:40;;;;;;;33.45;11.48;;;-1.70;96.90;;;;;;4907773;29;20523;-75
2023/02/09 08:35:08;;;;;;;31.33;10.95;;;-1.60;96.40;;;;;;4906611;29;20478;-75
2023/02/09 08:37:35;;;;;;;32.58;11.38;;;-1.50;96.60;;;;;;4877355;29;20051;-75
2023/02/09 08:40:03;;;;;;;27.17;8.48;;;-1.50;96.10;;;;;;4886269;29;20040;-75
2023/02/09 08:42:30;;;;;;;31.35;10.32;;;-1.50;96.20;;;;;;4875552;29;20052;-75
2023/02/09 08:44:57;;;;;;;26.95;10.23;;;-1.40;96.50;;;;;;4871006;29;20053;-75
2023/02/09 08:47:24;;;;;;;30.63;11.65;;;-1.30;96.20;;;;;;4899973;29;20075;-75
2023/02/09 08:49:51;;;;;;;36.55;12.00;;;-1.30;95.40;;;;;;4908409;29;20444;-75
2023/02/09 08:52:18;;;;;;;34.95;12.40;;;-1.20;95.50;;;;;;4891392;29;20047;-75
2023/02/09 08:54:45;;;;;;;28.35;11.32;;;-1.10;95.30;;;;;;4889343;29;20766;-77
2023/02/09 08:57:12;;;;;;;33.05;11.15;;;-1.10;95.10;;;;;;4884988;29;20063;-77
2023/02/09 08:59:40;;;;;;;26.35;11.80;;;-1.00;94.50;;;;;;4904892;29;20083;-76
2023/02/09 09:02:07;;;;;;;25.08;9.35;;;-0.90;95.10;;;;;;4888714;29;20309;-76
2023/02/09 09:04:34;;;;;;;26.33;8.88;;;-0.80;94.60;;;;;;4870426;29;20079;-76
2023/02/09 09:07:01;;;;;;;29.15;10.18;;;-0.70;94.50;;;;;;4892452;29;20064;-76
2023/02/09 09:09:28;;;;;;;27.50;10.80;;;-0.60;94.20;;;;;;4876959;29;20044;-76
2023/02/09 09:11:55;;;;;;;32.05;12.70;;;-0.70;93.70;;;;;;4891480;29;20515;-77
2023/02/09 09:14:25;;;;;;;26.40;10.88;;;-0.60;93.30;;;;;;4907401;29;20052;-76
2023/02/09 09:16:55;;;;;;;33.40;11.07;;;-0.60;93.00;;;;;;4893323;29;20114;-75
2023/02/09 09:19:22;;;;;;;29.73;12.13;;;-0.50;93.70;;;;;;4888492;29;20076;-75
2023/02/09 09:21:49;;;;;;;29.73;11.32;;;-0.40;93.80;;;;;;4892347;29;20092;-76
2023/02/09 09:24:16;;;;;;;27.20;10.88;;;-0.30;93.60;;;;;;4890476;29;20041;-76
2023/02/09 09:26:43;;;;;;;35.70;11.88;;;-0.30;92.70;;;;;;4910746;29;20044;-76
2023/02/09 09:29:10;;;;;;;31.23;13.02;;;-0.20;93.10;;;;;;4895394;29;20512;-76
2023/02/09 09:31:38;;;;;;;29.02;10.18;;;-0.20;92.70;;;;;;4908515;29;22126;-76
2023/02/09 09:34:05;;;;;;;32.83;12.70;;;-0.20;92.20;;;;;;4872800;29;20067;-77
2023/02/09 09:36:32;;;;;;;55.10;16.85;;;-0.10;92.70;;;;;;4908602;29;20045;-76
2023/02/09 09:38:59;;;;;;;32.13;12.45;;;0.10;92.80;;;;;;4884508;29;20044;-76
2023/02/09 09:41:35;;;;;;;28.10;11.55;;;0.10;92.10;;;;;;4871081;29;20048;-78
2023/02/09 09:44:10;;;;;;;31.80;11.85;;;0.20;92.40;;;;;;4881121;29;20059;-76
2023/02/09 09:46:41;;;;;;;31.60;10.63;;;0.20;91.80;;;;;;4908611;29;20052;-77
2023/02/09 09:49:27;;;;;;;27.63;10.32;;;0.20;91.30;;;;;;4895360;29;20056;-77
2023/02/09 09:52:17;;;;;;;28.48;11.70;;;0.40;91.70;;;;;;4867222;29;20056;-78
2023/02/09 09:54:44;;;;;;;18.58;7.95;;;0.40;91.10;;;;;;4906634;29;20052;-77
2023/02/09 09:57:25;;;;;;;19.85;7.80;;;0.50;90.80;;;;;;4865501;29;20059;-78
2023/02/09 09:59:53;;;;;;;24.92;9.35;;;0.50;90.00;;;;;;4873352;29;20040;-78
2023/02/09 10:02:27;;;;;;;20.40;8.13;;;0.60;89.70;;;;;;4890162;29;20080;-78
2023/02/09 10:05:10;;;;;;;18.33;7.38;;;0.60;88.90;;;;;;4885534;29;20048;-77
2023/02/09 10:07:39;;;;;;;;;;;0.70;88.70;;;;;;4895578;29;20050;-77
2023/02/09 10:10:17;;;;;;;21.48;7.82;;;0.80;88.30;;;;;;4894166;29;19931;-77
2023/02/09 10:12:48;;;;;;;19.00;7.88;;;0.90;88.30;;;;;;4895867;29;20060;-77
2023/02/09 10:15:31;;;;;;;22.52;8.93;;;1.00;88.00;;;;;;4892755;29;20139;-79
2023/02/09 10:17:59;;;;;;;27.02;10.82;;;1.10;87.30;;;;;;4891814;29;20471;-78
2023/02/09 10:20:46;;;;;;;24.80;9.38;;;1.00;86.70;;;;;;4873847;29;20048;-78
2023/02/09 10:23:22;;;;;;;23.15;9.60;;;1.10;87.70;;;;;;4891627;29;20514;-78
2023/02/09 10:26:00;;;;;;;28.52;10.52;;;1.20;86.90;;;;;;4909712;29;20131;-78
2023/02/09 10:28:31;;;;;;;24.75;9.02;;;1.20;86.70;;;;;;4892465;29;20065;-78
2023/02/09 10:31:01;;;;;;;22.83;9.25;;;1.20;84.70;;;;;;4892787;29;20044;-78
2023/02/09 10:33:37;;;;;;;24.40;9.18;;;1.30;85.60;;;;;;4893985;29;20044;-78
2023/02/09 10:36:05;;;;;;;21.90;8.98;;;1.60;85.40;;;;;;4883561;29;20059;-78
2023/02/09 10:38:33;;;;;;;26.58;9.77;;;1.60;83.70;;;;;;4886701;29;20416;-78
2023/02/09 10:41:00;;;;;;;27.45;11.45;;;1.70;83.70;;;;;;4912047;29;20135;-79
2023/02/09 10:43:33;;;;;;;25.50;9.77;;;1.70;83.80;;;;;;4896301;29;20053;-79
2023/02/09 10:46:14;;;;;;;22.77;9.18;;;1.70;84.10;;;;;;4876552;29;20044;-79
2023/02/09 10:48:45;;;;;;;27.30;11.00;;;1.70;83.80;;;;;;4885197;29;20044;-78
2023/02/09 10:51:28;;;;;;;22.70;8.95;;;1.80;84.50;;;;;;4883587;29;20135;-78
2023/02/09 10:54:00;;;;;;;21.25;9.90;;;1.90;84.20;;;;;;4895753;29;20056;-78
2023/02/09 10:56:46;;;;;;;19.40;8.63;;;1.80;84.40;;;;;;4891953;29;20123;-78
2023/02/09 10:59:19;;;;;;;22.65;9.80;;;1.90;84.40;;;;;;4890852;29;20047;-78
2023/02/09 11:01:58;;;;;;;19.33;7.90;;;1.90;83.70;;;;;;4895175;29;20032;-79
2023/02/09 11:04:36;;;;;;;18.30;8.05;;;2.00;83.00;;;;;;4903874;29;20127;-79
2023/02/09 11:07:10;;;;;;;20.75;8.85;;;2.00;82.30;;;;;;4890462;29;20067;-79
2023/02/09 11:09:42;;;;;;;20.15;8.10;;;2.00;81.90;;;;;;4908240;29;20085;-79
2023/02/09 11:12:11;;;;;;;21.08;8.85;;;2.10;82.10;;;;;;4905950;29;20056;-79
2023/02/09 11:14:38;;;;;;;23.20;9.15;;;2.00;81.80;;;;;;4902179;29;20078;-79
2023/02/09 11:17:24;;;;;;;21.40;8.23;;;2.10;81.20;;;;;;4895149;29;20546;-79
2023/02/09 11:20:18;;;;;;;22.17;9.00;;;2.20;80.40;;;;;;4907041;29;20127;-78
2023/02/09 11:22:57;;;;;;;22.38;9.00;;;2.20;80.50;;;;;;4906443;29;20472;-79
2023/02/09 11:25:48;;;;;;;23.05;8.80;;;2.30;81.10;;;;;;4890862;29;20452;-79
2023/02/09 11:28:35;;;;;;;20.13;9.65;;;2.30;80.00;;;;;;4905950;29;20040;-79
2023/02/09 11:31:30;;;;;;;21.98;9.95;;;2.30;80.10;;;;;;4865893;29;20072;-78
2023/02/09 11:34:12;;;;;;;22.48;9.80;;;2.40;81.10;;;;;;4886416;29;20048;-78
2023/02/09 11:36:56;;;;;;;28.08;8.02;;;2.40;81.50;;;;;;4905885;29;20036;-78
2023/02/09 11:39:38;;;;;;;23.48;9.75;;;2.40;80.90;;;;;;4906895;29;20397;-78
2023/02/09 11:45:03;;;;;;;23.30;10.47;;;2.50;81.30;;;;;;4908927;29;20510;-78
2023/02/09 11:48:01;;;;;;;28.98;9.98;;;2.50;81.10;;;;;;4887800;29;20052;-79
2023/02/09 11:50:51;;;;;;;20.58;8.68;;;2.50;80.20;;;;;;4907936;29;20040;-79
2023/02/09 11:53:27;;;;;;;18.77;8.32;;;2.60;78.20;;;;;;4887039;29;20081;-80
2023/02/09 11:56:00;;;;;;;26.35;10.60;;;2.60;78.30;;;;;;4908195;29;20056;-79
2023/02/09 11:58:56;;;;;;;19.52;7.85;;;2.60;78.40;;;;;;4890428;29;20059;-80
2023/02/09 12:02:01;;;;;;;21.27;8.18;;;2.60;76.80;;;;;;4890913;29;20403;-79
2023/02/09 12:04:44;;;;;;;19.40;7.95;;;2.60;77.40;;;;;;4907764;29;20535;-80
2023/02/09 12:07:33;;;;;;;20.90;7.70;;;2.70;76.80;;;;;;4889653;29;20047;-79
2023/02/09 12:10:25;;;;;;;17.95;6.68;;;2.80;76.80;;;;;;4890291;29;20055;-80
2023/02/09 12:13:39;;;;;;;21.17;8.02;;;2.60;74.50;;;;;;4887087;29;20064;-79
2023/02/09 12:16:13;;;;;;;15.07;6.43;;;2.70;74.70;;;;;;4888945;29;20130;-80
2023/02/09 12:18:43;;;;;;;14.40;6.57;;;2.70;72.30;;;;;;4895815;29;20059;-80
2023/02/09 12:21:11;;;;;;;19.13;7.18;;;2.80;73.00;;;;;;4890846;29;20036;-79
2023/02/09 12:23:43;;;;;;;18.05;6.57;;;2.80;72.50;;;;;;4891354;29;20051;-80
2023/02/09 12:26:10;;;;;;;17.42;7.43;;;2.70;72.50;;;;;;4877332;29;20053;-79
2023/02/09 12:28:37;;;;;;;19.98;7.45;;;2.70;73.90;;;;;;4876639;29;20036;-79
2023/02/09 12:31:15;;;;;;;20.15;7.07;;;2.80;74.50;;;;;;4888522;29;20055;-77
2023/02/09 12:33:46;;;;;;;15.32;7.13;;;2.70;73.70;;;;;;4907920;29;20044;-77
2023/02/09 12:36:13;;;;;;;14.75;6.70;;;2.80;74.50;;;;;;4890731;29;20456;-79
2023/02/09 12:38:49;;;;;;;17.70;7.00;;;2.80;73.90;;;;;;4872618;29;20157;-79
2023/02/09 12:41:29;;;;;;;15.73;6.67;;;2.70;73.00;;;;;;4885288;29;20048;-77
2023/02/09 12:44:09;;;;;;;17.85;6.95;;;2.80;73.50;;;;;;4886232;29;20364;-78
2023/02/09 12:46:51;;;;;;;15.82;7.13;;;2.70;72.70;;;;;;4905403;29;20091;-77
2023/02/09 12:49:40;;;;;;;18.13;7.10;;;2.70;72.60;;;;;;4900533;29;20503;-78
2023/02/09 12:52:15;;;;;;;13.75;5.97;;;2.70;72.10;;;;;;4873260;29;20076;-77
2023/02/09 12:54:57;;;;;;;17.13;6.43;;;2.70;71.50;;;;;;4886215;29;20445;-78
2023/02/09 12:57:25;;;;;;;18.88;7.97;;;2.70;72.70;;;;;;4904284;29;20481;-78
2023/02/09 12:59:57;;;;;;;19.60;8.13;;;2.70;73.00;;;;;;4888192;29;20143;-78
2023/02/09 13:02:45;;;;;;;19.43;7.77;;;2.80;73.10;;;;;;4891691;29;20040;-78
2023/02/09 13:05:23;;;;;;;15.75;6.93;;;2.80;73.10;;;;;;4906283;29;20292;-77
2023/02/09 13:08:01;;;;;;;16.92;6.30;;;2.70;72.10;;;;;;4891390;29;20092;-78